createdAt,value
2022-10-10T00:02:18.019Z,2.50
2022-10-10T00:04:47.729Z,2.72
2022-10-10T00:07:16.849Z,2.55
2022-10-10T00:09:46.046Z,2.28
2022-10-10T00:12:15.784Z,2.65
2022-10-10T00:14:46.389Z,2.53
2022-10-10T00:17:15.584Z,2.42
2022-10-10T00:19:44.693Z,2.60
2022-10-10T00:22:13.890Z,2.33
2022-10-10T00:24:43.084Z,2.80
2022-10-10T00:27:12.225Z,2.80
2022-10-10T00:29:41.449Z,2.53
2022-10-10T00:32:11.980Z,3.00
2022-10-10T00:34:41.201Z,2.60
2022-10-10T00:37:10.279Z,2.95
2022-10-10T00:39:39.469Z,2.70
2022-10-10T00:42:08.758Z,3.05
2022-10-10T00:44:38.966Z,2.60
2022-10-10T00:47:08.463Z,2.85
2022-10-10T00:49:42.862Z,2.50
2022-10-10T00:52:13.683Z,2.60
2022-10-10T00:54:42.968Z,2.33
2022-10-10T00:57:14.979Z,2.67
2022-10-10T00:59:46.768Z,2.70
2022-10-10T01:02:16.117Z,2.60
2022-10-10T01:04:46.917Z,2.92
2022-10-10T01:07:20.577Z,2.80
2022-10-10T01:09:52.618Z,2.40
2022-10-10T01:12:26.819Z,2.60
2022-10-10T01:15:03.347Z,2.85
2022-10-10T01:17:36.506Z,2.83
2022-10-10T01:20:49.030Z,2.80
2022-10-10T01:23:54.407Z,2.70
2022-10-10T01:26:45.178Z,2.80
2022-10-10T01:29:21.756Z,2.40
2022-10-10T01:31:54.871Z,2.70
2022-10-10T01:34:29.016Z,3.00
2022-10-10T01:37:03.051Z,3.00
2022-10-10T01:39:41.113Z,3.00
2022-10-10T01:42:16.081Z,2.40
2022-10-10T01:44:48.236Z,2.63
2022-10-10T01:47:17.414Z,2.83
2022-10-10T01:49:47.629Z,2.85
2022-10-10T01:52:29.852Z,2.95
2022-10-10T01:55:13.578Z,2.88
2022-10-10T01:57:50.130Z,2.72
2022-10-10T02:00:21.256Z,3.10
2022-10-10T02:02:58.180Z,2.83
2022-10-10T02:05:31.045Z,3.08
2022-10-10T02:08:04.774Z,2.72
2022-10-10T02:10:36.596Z,2.92
2022-10-10T02:13:07.568Z,3.13
2022-10-10T02:15:41.861Z,3.20
2022-10-10T02:18:13.703Z,2.92
2022-10-10T02:20:45.353Z,3.28
2022-10-10T02:23:17.840Z,2.90
2022-10-10T02:25:52.503Z,2.95
2022-10-10T02:28:27.030Z,2.90
2022-10-10T02:31:02.077Z,2.80
2022-10-10T02:33:42.986Z,3.05
2022-10-10T02:36:13.037Z,2.97
2022-10-10T02:38:44.018Z,3.13
2022-10-10T02:41:15.934Z,2.90
2022-10-10T02:43:45.911Z,3.20
2022-10-10T02:46:16.853Z,2.75
2022-10-10T02:48:46.161Z,3.10
2022-10-10T02:51:17.524Z,3.20
2022-10-10T02:53:46.742Z,3.15
2022-10-10T02:56:16.013Z,2.90
2022-10-10T02:58:45.416Z,3.30
2022-10-10T03:01:16.039Z,3.30
2022-10-10T03:03:45.285Z,2.95
2022-10-10T03:06:14.380Z,2.95
2022-10-10T03:08:43.561Z,2.97
2022-10-10T03:11:12.760Z,3.20
2022-10-10T03:13:41.973Z,3.10
2022-10-10T03:16:11.415Z,2.80
2022-10-10T03:18:41.912Z,3.03
2022-10-10T03:21:11.203Z,3.60
2022-10-10T03:23:40.463Z,3.10
2022-10-10T03:26:10.114Z,3.17
2022-10-10T03:28:39.613Z,3.45
2022-10-10T03:31:08.907Z,2.83
2022-10-10T03:33:38.126Z,3.05
2022-10-10T03:36:09.135Z,3.85
2022-10-10T03:38:38.302Z,3.00
2022-10-10T03:41:07.664Z,3.10
2022-10-10T03:43:36.866Z,3.15
2022-10-10T03:46:06.313Z,3.60
2022-10-10T03:48:35.480Z,3.30
2022-10-10T03:51:04.771Z,3.08
2022-10-10T03:53:35.903Z,3.08
2022-10-10T03:56:05.071Z,3.50
2022-10-10T03:58:34.363Z,3.50
2022-10-10T04:01:05.103Z,3.30
2022-10-10T04:03:34.376Z,3.55
2022-10-10T04:06:03.579Z,3.53
2022-10-10T04:08:33.253Z,3.20
2022-10-10T04:11:03.874Z,3.55
2022-10-10T04:13:33.113Z,3.30
2022-10-10T04:16:02.270Z,3.17
2022-10-10T04:18:31.673Z,2.58
2022-10-10T04:21:03.578Z,2.05
2022-10-10T04:23:33.057Z,2.60
2022-10-10T04:26:03.611Z,2.30
2022-10-10T04:28:32.923Z,2.58
2022-10-10T04:31:02.173Z,2.20
2022-10-10T04:33:31.431Z,2.42
2022-10-10T04:36:00.606Z,2.55
2022-10-10T04:38:30.514Z,2.40
2022-10-10T04:40:59.651Z,2.17
2022-10-10T04:43:30.368Z,2.28
2022-10-10T04:45:59.884Z,2.33
2022-10-10T04:48:29.814Z,2.50
2022-10-10T04:51:00.464Z,2.10
2022-10-10T04:53:29.840Z,2.40
2022-10-10T04:55:58.950Z,2.10
2022-10-10T04:58:29.491Z,2.55
2022-10-10T05:00:58.786Z,2.40
2022-10-10T05:03:28.179Z,2.03
2022-10-10T05:05:57.347Z,2.40
2022-10-10T05:08:26.652Z,2.58
2022-10-10T05:10:55.769Z,2.30
2022-10-10T05:13:24.979Z,3.00
2022-10-10T05:15:55.657Z,2.60
2022-10-10T05:18:25.030Z,2.42
2022-10-10T05:20:54.170Z,2.40
2022-10-10T05:23:23.391Z,2.50
2022-10-10T05:25:53.214Z,2.60
2022-10-10T05:28:22.379Z,2.15
2022-10-10T05:30:52.288Z,2.53
2022-10-10T05:33:23.043Z,2.70
2022-10-10T05:35:52.209Z,2.70
2022-10-10T05:38:21.407Z,2.40
2022-10-10T05:40:50.623Z,3.25
2022-10-10T05:43:19.762Z,3.30
2022-10-10T05:45:48.955Z,2.60
2022-10-10T05:48:18.747Z,2.67
2022-10-10T05:50:50.906Z,3.17
2022-10-10T05:53:20.332Z,2.80
2022-10-10T05:55:49.397Z,2.92
2022-10-10T05:58:18.801Z,2.55
2022-10-10T06:00:49.198Z,2.83
2022-10-10T06:03:19.401Z,2.83
2022-10-10T06:05:53.519Z,2.85
2022-10-10T06:08:22.651Z,2.50
2022-10-10T06:10:51.732Z,2.95
2022-10-10T06:13:24.537Z,2.60
2022-10-10T06:15:55.180Z,2.65
2022-10-10T06:18:24.485Z,2.35
2022-10-10T06:20:55.084Z,2.72
2022-10-10T06:23:24.475Z,2.80
2022-10-10T06:25:54.424Z,2.92
2022-10-10T06:28:24.209Z,2.67
2022-10-10T06:30:53.763Z,3.05
2022-10-10T06:33:23.143Z,2.95
2022-10-10T06:35:52.261Z,2.97
2022-10-10T06:38:22.950Z,3.15
2022-10-10T06:40:52.487Z,3.00
2022-10-10T06:43:21.743Z,2.92
2022-10-10T06:45:52.439Z,2.90
2022-10-10T06:48:21.673Z,3.10
2022-10-10T06:51:01.928Z,2.85
2022-10-10T06:53:33.309Z,2.80
2022-10-10T06:56:02.819Z,2.67
2022-10-10T06:58:31.965Z,2.70
2022-10-10T07:01:03.347Z,2.83
2022-10-10T07:03:32.886Z,2.83
2022-10-10T07:06:03.442Z,2.45
2022-10-10T07:08:34.784Z,2.95
2022-10-10T07:11:03.985Z,2.63
2022-10-10T07:13:33.220Z,2.65
2022-10-10T07:16:02.412Z,2.70
2022-10-10T07:18:31.926Z,2.55
2022-10-10T07:21:02.545Z,2.80
2022-10-10T07:23:33.589Z,2.75
2022-10-10T07:26:05.370Z,2.83
2022-10-10T07:28:35.159Z,2.75
2022-10-10T07:31:06.025Z,2.95
2022-10-10T07:33:36.789Z,3.00
2022-10-10T07:36:06.382Z,3.28
2022-10-10T07:38:38.175Z,3.03
2022-10-10T07:41:09.215Z,2.80
2022-10-10T07:43:38.676Z,3.08
2022-10-10T07:46:14.412Z,3.00
2022-10-10T07:48:44.713Z,2.70
2022-10-10T07:51:14.413Z,2.85
2022-10-10T07:53:45.438Z,2.88
2022-10-10T07:56:14.706Z,2.97
2022-10-10T07:58:43.792Z,2.70
2022-10-10T08:01:14.489Z,2.60
2022-10-10T08:03:43.812Z,2.75
2022-10-10T08:06:14.498Z,2.97
2022-10-10T08:08:51.383Z,3.33
2022-10-10T08:11:22.624Z,3.10
2022-10-10T08:13:52.421Z,3.10
2022-10-10T08:16:21.647Z,2.88
2022-10-10T08:18:50.970Z,3.60
2022-10-10T08:21:20.515Z,3.00
2022-10-10T08:23:51.826Z,3.20
2022-10-10T08:26:21.183Z,2.85
2022-10-10T08:28:51.063Z,3.17
2022-10-10T08:31:22.751Z,2.88
2022-10-10T08:33:53.149Z,2.80
2022-10-10T08:36:24.221Z,2.85
2022-10-10T08:38:59.424Z,3.45
2022-10-10T08:41:39.420Z,3.47
2022-10-10T08:44:18.033Z,2.92
2022-10-10T08:46:51.628Z,3.13
2022-10-10T08:49:28.496Z,3.00
2022-10-10T08:52:05.492Z,3.00
2022-10-10T08:54:38.236Z,2.90
2022-10-10T08:57:18.135Z,2.78
2022-10-10T08:59:47.408Z,3.00
2022-10-10T09:02:43.905Z,3.08
2022-10-10T09:05:22.684Z,3.33
2022-10-10T09:08:26.233Z,3.40
2022-10-10T09:11:01.343Z,3.38
2022-10-10T09:13:37.351Z,4.13
2022-10-10T09:16:20.468Z,3.35
2022-10-10T09:19:00.796Z,3.50
2022-10-10T09:21:34.149Z,3.40
2022-10-10T09:24:07.350Z,3.58
2022-10-10T09:26:44.273Z,3.30
2022-10-10T09:29:26.777Z,3.20
2022-10-10T09:32:00.141Z,3.50
2022-10-10T09:34:36.339Z,3.30
2022-10-10T09:37:07.302Z,3.70
2022-10-10T09:39:43.399Z,3.28
2022-10-10T09:42:15.407Z,3.25
2022-10-10T09:44:45.297Z,3.30
2022-10-10T09:47:17.126Z,3.42
2022-10-10T09:49:47.213Z,3.40
2022-10-10T09:52:26.107Z,3.50
2022-10-10T09:55:00.810Z,3.15
2022-10-10T09:57:38.120Z,3.40
2022-10-10T10:00:28.417Z,3.38
2022-10-10T10:03:13.186Z,3.58
2022-10-10T10:05:45.561Z,3.22
2022-10-10T10:08:25.930Z,3.35
2022-10-10T10:10:58.684Z,3.20
2022-10-10T10:13:32.954Z,3.15
2022-10-10T10:16:08.366Z,3.38
2022-10-10T10:18:43.482Z,3.58
2022-10-10T10:21:22.483Z,2.92
2022-10-10T10:23:58.187Z,3.45
2022-10-10T10:26:31.118Z,3.63
2022-10-10T10:29:01.798Z,3.40
2022-10-10T10:31:53.625Z,3.00
2022-10-10T10:35:01.557Z,2.90
2022-10-10T10:37:41.814Z,3.30
2022-10-10T10:40:31.264Z,3.00
2022-10-10T10:43:37.068Z,3.38
2022-10-10T10:46:12.815Z,2.75
2022-10-10T10:48:49.653Z,3.00
2022-10-10T10:51:55.014Z,3.25
2022-10-10T10:54:42.368Z,2.83
2022-10-10T11:00:22.379Z,3.15
2022-10-10T11:03:38.395Z,2.80
2022-10-10T11:06:20.824Z,3.03
2022-10-10T11:08:59.080Z,3.22
2022-10-10T11:11:37.040Z,2.85
2022-10-10T11:14:16.299Z,2.85
2022-10-10T11:16:50.546Z,3.00
2022-10-10T11:19:28.169Z,3.05
2022-10-10T11:22:03.693Z,3.10
2022-10-10T11:24:43.420Z,3.10
2022-10-10T11:27:19.142Z,2.67
2022-10-10T11:30:07.092Z,2.95
2022-10-10T11:32:43.270Z,3.00
2022-10-10T11:35:35.839Z,2.63
2022-10-10T11:38:14.493Z,2.70
2022-10-10T11:40:54.284Z,2.72
2022-10-10T11:43:31.432Z,2.92
2022-10-10T11:46:06.863Z,2.45
2022-10-10T11:48:47.082Z,2.42
2022-10-10T11:51:44.420Z,2.75
2022-10-10T11:54:24.131Z,2.50
2022-10-10T11:56:56.065Z,2.63
2022-10-10T11:59:29.487Z,2.90
2022-10-10T12:02:02.057Z,2.70
2022-10-10T12:04:36.789Z,2.53
2022-10-10T12:07:15.084Z,2.38
2022-10-10T12:09:47.892Z,2.45
2022-10-10T12:12:22.984Z,2.50
2022-10-10T12:14:55.855Z,2.83
2022-10-10T12:17:29.913Z,2.42
2022-10-10T12:20:11.521Z,2.50
2022-10-10T12:22:42.440Z,2.50
2022-10-10T12:25:26.209Z,2.63
2022-10-10T12:28:07.683Z,2.45
2022-10-10T12:30:36.855Z,2.33
2022-10-10T12:33:21.482Z,2.60
2022-10-10T12:35:50.634Z,2.10
2022-10-10T12:38:24.423Z,2.40
2022-10-10T12:41:11.727Z,2.70
2022-10-10T12:43:53.303Z,2.20
2022-10-10T12:46:30.988Z,2.30
2022-10-10T12:49:21.830Z,2.20
2022-10-10T12:52:03.656Z,2.20
2022-10-10T12:54:40.404Z,2.30
2022-10-10T12:57:17.572Z,2.30
2022-10-10T12:59:47.404Z,2.45
2022-10-10T13:02:23.200Z,2.20
2022-10-10T13:04:54.905Z,2.30
2022-10-10T13:07:26.014Z,2.22
2022-10-10T13:10:05.773Z,2.15
2022-10-10T13:12:35.375Z,2.05
2022-10-10T13:15:04.691Z,2.30
2022-10-10T13:17:39.195Z,2.30
2022-10-10T13:20:10.136Z,2.22
2022-10-10T13:22:41.964Z,2.03
2022-10-10T13:25:17.788Z,2.35
2022-10-10T13:27:47.074Z,2.10
2022-10-10T13:30:21.731Z,1.98
2022-10-10T13:32:52.176Z,2.30
2022-10-10T13:35:24.049Z,2.30
2022-10-10T13:37:56.638Z,2.22
2022-10-10T13:40:28.172Z,2.13
2022-10-10T13:42:58.809Z,2.10
2022-10-10T13:45:33.959Z,2.10
2022-10-10T13:48:19.459Z,2.17
2022-10-10T13:51:05.316Z,2.03
2022-10-10T13:53:49.146Z,2.10
2022-10-10T13:56:24.938Z,2.25
2022-10-10T13:58:57.247Z,2.20
2022-10-10T14:01:34.110Z,2.00
2022-10-10T14:04:20.790Z,1.83
2022-10-10T14:06:57.539Z,2.08
2022-10-10T14:09:32.166Z,2.25
2022-10-10T14:12:05.490Z,2.05
2022-10-10T14:14:37.053Z,1.85
2022-10-10T14:17:07.033Z,2.10
2022-10-10T14:19:36.179Z,2.08
2022-10-10T14:22:05.447Z,1.67
2022-10-10T14:24:34.734Z,2.10
2022-10-10T14:27:15.658Z,1.98
2022-10-10T14:29:44.848Z,1.98
2022-10-10T14:32:15.172Z,2.05
2022-10-10T14:34:44.792Z,2.00
2022-10-10T14:37:20.320Z,2.08
2022-10-10T14:39:49.772Z,2.08
2022-10-10T14:42:21.553Z,2.10
2022-10-10T14:44:51.131Z,2.20
2022-10-10T14:47:22.733Z,2.25
2022-10-10T14:49:53.530Z,1.85
2022-10-10T14:52:22.853Z,1.90
2022-10-10T14:54:51.994Z,1.67
2022-10-10T14:57:23.274Z,1.98
2022-10-10T14:59:52.492Z,1.73
2022-10-10T15:02:22.969Z,2.03
2022-10-10T15:04:52.247Z,1.90
2022-10-10T15:07:21.439Z,2.58
2022-10-10T15:12:44.526Z,2.67
2022-10-10T15:15:15.006Z,1.98
2022-10-10T15:17:44.300Z,2.33
2022-10-10T15:20:14.827Z,2.03
2022-10-10T15:22:46.136Z,2.10
2022-10-10T15:25:15.376Z,2.10
2022-10-10T15:27:46.047Z,1.80
2022-10-10T15:30:15.425Z,2.50
2022-10-10T15:32:44.963Z,2.42
2022-10-10T15:35:16.158Z,2.00
2022-10-10T15:37:46.179Z,1.90
2022-10-10T15:40:18.133Z,2.53
2022-10-10T15:42:49.561Z,1.80
2022-10-10T15:45:43.658Z,2.05
2022-10-10T15:48:08.693Z,2.20
2022-10-10T15:50:43.341Z,2.25
2022-10-10T15:53:12.707Z,1.95
2022-10-10T15:55:45.074Z,1.90
2022-10-10T15:58:17.076Z,2.08
2022-10-10T16:00:46.551Z,2.20
2022-10-10T16:03:16.004Z,1.90
2022-10-10T16:05:45.464Z,1.95
2022-10-10T16:08:14.808Z,2.30
2022-10-10T16:10:45.174Z,2.10
2022-10-10T16:13:15.938Z,1.92
2022-10-10T16:15:45.235Z,1.70
2022-10-10T16:18:14.606Z,2.00
2022-10-10T16:20:44.233Z,2.00
2022-10-10T16:23:13.561Z,1.88
2022-10-10T16:25:42.792Z,1.90
2022-10-10T16:28:12.023Z,2.10
2022-10-10T16:30:43.060Z,1.98
2022-10-10T16:33:12.361Z,1.90
2022-10-10T16:35:41.507Z,1.67
2022-10-10T16:38:10.857Z,1.95
2022-10-10T16:40:40.307Z,1.90
2022-10-10T16:43:09.616Z,1.77
2022-10-10T16:45:44.313Z,1.77
2022-10-10T16:48:14.177Z,1.85
2022-10-10T16:50:44.013Z,1.90
2022-10-10T16:53:13.393Z,1.70
2022-10-10T16:55:43.187Z,1.70
2022-10-10T16:58:12.357Z,1.80
2022-10-10T17:00:44.565Z,1.88
2022-10-10T17:03:13.912Z,1.80
2022-10-10T17:05:44.167Z,1.83
2022-10-10T17:08:13.720Z,1.77
2022-10-10T17:10:44.890Z,2.00
2022-10-10T17:13:14.267Z,1.70
2022-10-10T17:15:45.064Z,1.85
2022-10-10T17:18:14.255Z,2.03
2022-10-10T17:20:43.453Z,1.90
2022-10-10T17:23:13.240Z,1.85
2022-10-10T17:25:43.422Z,1.60
2022-10-10T17:28:13.070Z,1.55
2022-10-10T17:30:45.980Z,1.83
2022-10-10T17:33:16.622Z,1.58
2022-10-10T17:35:48.464Z,1.90
2022-10-10T17:38:35.356Z,2.00
2022-10-10T17:41:10.526Z,2.10
2022-10-10T17:43:39.864Z,1.85
2022-10-10T17:46:33.305Z,1.98
2022-10-10T17:49:03.213Z,1.75
2022-10-10T17:51:32.587Z,1.75
2022-10-10T17:54:03.013Z,2.08
2022-10-10T17:56:32.434Z,2.67
2022-10-10T17:59:02.553Z,2.17
2022-10-10T18:01:33.389Z,2.05
2022-10-10T18:04:03.199Z,1.90
2022-10-10T18:06:33.072Z,2.08
2022-10-10T18:09:02.475Z,2.05
2022-10-10T18:11:32.716Z,2.55
2022-10-10T18:14:02.974Z,2.30
2022-10-10T18:16:35.396Z,1.77
2022-10-10T18:19:05.819Z,2.15
2022-10-10T18:21:35.772Z,2.17
2022-10-10T18:24:05.371Z,2.47
2022-10-10T18:26:35.242Z,1.92
2022-10-10T18:29:04.567Z,2.05
2022-10-10T18:31:36.791Z,2.17
2022-10-10T18:34:07.486Z,2.25
2022-10-10T18:36:38.937Z,3.75
2022-10-10T18:39:12.283Z,2.35
2022-10-10T18:41:41.980Z,2.35
2022-10-10T18:44:14.384Z,1.98
2022-10-10T18:46:46.427Z,2.05
2022-10-10T18:49:17.279Z,2.42
2022-10-10T18:51:46.872Z,2.30
2022-10-10T18:54:18.404Z,2.08
2022-10-10T18:56:48.744Z,2.10
2022-10-10T18:59:20.081Z,2.30
2022-10-10T19:01:52.636Z,2.08
2022-10-10T19:04:23.043Z,2.47
2022-10-10T19:06:56.966Z,2.03
2022-10-10T19:09:27.255Z,1.80
2022-10-10T19:11:56.540Z,2.50
2022-10-10T19:14:25.839Z,1.92
2022-10-10T19:16:56.717Z,1.70
2022-10-10T19:19:26.016Z,2.20
2022-10-10T19:21:55.361Z,2.97
2022-10-10T19:24:24.763Z,2.08
2022-10-10T19:26:56.515Z,2.00
2022-10-10T19:29:27.438Z,2.25
2022-10-10T19:31:58.396Z,1.88
2022-10-10T19:34:27.880Z,1.70
2022-10-10T19:36:58.348Z,1.98
2022-10-10T19:39:27.581Z,1.77
2022-10-10T19:41:56.984Z,1.60
2022-10-10T19:44:26.190Z,1.80
2022-10-10T19:46:56.348Z,1.95
2022-10-10T19:49:27.101Z,3.35
2022-10-10T19:51:56.376Z,2.90
2022-10-10T19:54:25.800Z,2.40
2022-10-10T19:56:55.113Z,1.83
2022-10-10T19:59:24.449Z,1.77
2022-10-10T20:01:53.840Z,1.90
2022-10-10T20:04:23.244Z,1.67
2022-10-10T20:06:53.942Z,1.88
2022-10-10T20:09:24.600Z,1.80
2022-10-10T20:11:53.916Z,1.60
2022-10-10T20:14:23.250Z,1.55
2022-10-10T20:16:52.806Z,1.60
2022-10-10T20:19:22.081Z,1.73
2022-10-10T20:21:51.709Z,2.10
2022-10-10T20:24:22.350Z,1.63
2022-10-10T20:26:51.612Z,1.73
2022-10-10T20:29:20.837Z,2.63
2022-10-10T20:31:49.944Z,2.15
2022-10-10T20:34:19.132Z,1.90
2022-10-10T20:36:48.273Z,1.83
2022-10-10T20:39:17.549Z,2.03
2022-10-10T20:41:48.256Z,1.80
2022-10-10T20:44:17.501Z,1.90
2022-10-10T20:46:47.204Z,1.63
2022-10-10T20:49:18.152Z,1.92
2022-10-10T20:51:50.473Z,1.65
2022-10-10T20:54:21.545Z,1.63
2022-10-10T20:56:52.213Z,1.92
2022-10-10T20:59:24.559Z,1.50
2022-10-10T21:01:53.970Z,1.77
2022-10-10T21:04:23.170Z,1.90
2022-10-10T21:06:52.375Z,1.83
2022-10-10T21:09:21.518Z,1.80
2022-10-10T21:11:52.861Z,1.90
2022-10-10T21:14:22.115Z,1.60
2022-10-10T21:16:51.497Z,1.70
2022-10-10T21:19:20.892Z,1.70
2022-10-10T21:21:50.094Z,1.75
2022-10-10T21:24:19.313Z,1.80
2022-10-10T21:26:49.274Z,1.63
2022-10-10T21:29:19.899Z,1.85
2022-10-10T21:31:49.155Z,1.77
2022-10-10T21:34:19.144Z,1.60
2022-10-10T21:36:48.515Z,1.50
2022-10-10T21:39:17.940Z,1.65
2022-10-10T21:41:47.149Z,1.70
2022-10-10T21:44:17.280Z,1.73
2022-10-10T21:46:47.897Z,1.60
2022-10-10T21:49:17.102Z,1.63
2022-10-10T21:51:46.821Z,2.03
2022-10-10T21:54:16.076Z,1.98
2022-10-10T21:56:45.375Z,1.63
2022-10-10T21:59:14.582Z,1.48
2022-10-10T22:01:44.547Z,1.58
2022-10-10T22:04:15.270Z,1.83
2022-10-10T22:06:44.855Z,1.75
2022-10-10T22:09:13.988Z,1.17
2022-10-10T22:11:43.309Z,1.40
2022-10-10T22:14:12.504Z,1.67
2022-10-10T22:16:41.661Z,1.65
2022-10-10T22:19:10.853Z,1.80
2022-10-10T22:21:41.418Z,1.60
2022-10-10T22:24:10.650Z,1.58
2022-10-10T22:26:39.772Z,1.42
2022-10-10T22:29:08.953Z,1.77
2022-10-10T22:31:38.275Z,1.90
2022-10-10T22:34:08.021Z,1.90
2022-10-10T22:36:37.274Z,1.60
2022-10-10T22:39:11.089Z,1.55
2022-10-10T22:41:40.432Z,1.70
2022-10-10T22:44:10.411Z,1.55
2022-10-10T22:46:39.658Z,1.67
2022-10-10T22:49:08.875Z,1.70
2022-10-10T22:51:38.764Z,1.80
2022-10-10T22:54:09.787Z,1.90
2022-10-10T22:56:38.928Z,1.40
2022-10-10T22:59:08.842Z,1.50
2022-10-10T23:01:38.012Z,1.30
2022-10-10T23:04:13.363Z,1.60
2022-10-10T23:06:42.632Z,1.63
2022-10-10T23:09:14.201Z,1.60
2022-10-10T23:11:43.536Z,1.50
2022-10-10T23:14:12.740Z,1.60
2022-10-10T23:16:41.933Z,1.55
2022-10-10T23:19:11.226Z,1.70
2022-10-10T23:21:40.333Z,1.48
2022-10-10T23:24:09.847Z,1.67
2022-10-10T23:26:40.591Z,1.63
2022-10-10T23:29:10.812Z,1.70
2022-10-10T23:31:39.992Z,1.40
2022-10-10T23:34:09.297Z,1.60
2022-10-10T23:36:38.503Z,1.52
2022-10-10T23:39:09.971Z,1.52
2022-10-10T23:41:40.804Z,1.30
2022-10-10T23:44:10.087Z,1.75
2022-10-10T23:46:39.250Z,1.73
2022-10-10T23:49:08.376Z,1.63
2022-10-10T23:51:37.635Z,1.48
2022-10-10T23:54:06.964Z,1.40
2022-10-10T23:56:36.165Z,1.40
2022-10-10T23:59:06.739Z,1.27
